createdAt,value
2022-07-27T00:01:50.645Z,13.93
2022-07-27T00:04:18.681Z,13.52
2022-07-27T00:06:45.574Z,15.07
2022-07-27T00:09:12.664Z,15.52
2022-07-27T00:11:39.654Z,13.85
2022-07-27T00:14:06.273Z,16.45
2022-07-27T00:16:33.079Z,15.85
2022-07-27T00:19:00.131Z,14.98
2022-07-27T00:21:26.874Z,18.23
2022-07-27T00:23:54.632Z,17.42
2022-07-27T00:26:21.526Z,15.73
2022-07-27T00:28:49.432Z,16.73
2022-07-27T00:31:16.715Z,15.55
2022-07-27T00:33:43.440Z,16.23
2022-07-27T00:36:10.571Z,16.30
2022-07-27T00:38:37.238Z,16.50
2022-07-27T00:41:04.307Z,14.82
2022-07-27T00:43:31.057Z,15.15
2022-07-27T00:45:57.649Z,14.65
2022-07-27T00:48:24.389Z,14.73
2022-07-27T00:50:53.244Z,15.00
2022-07-27T00:53:19.994Z,15.80
2022-07-27T00:55:47.262Z,13.88
2022-07-27T00:58:14.348Z,13.75
2022-07-27T01:00:40.929Z,13.90
2022-07-27T01:03:08.970Z,13.32
2022-07-27T01:05:43.386Z,15.85
2022-07-27T01:08:12.811Z,13.10
2022-07-27T01:10:40.351Z,14.60
2022-07-27T01:13:07.076Z,14.57
2022-07-27T01:17:58.835Z,13.63
2022-07-27T01:20:25.522Z,13.95
2022-07-27T01:22:52.045Z,14.40
2022-07-27T01:25:18.764Z,12.60
2022-07-27T01:27:45.338Z,12.93
2022-07-27T01:30:27.742Z,13.88
2022-07-27T01:33:02.067Z,13.32
2022-07-27T01:35:29.645Z,14.23
2022-07-27T01:37:56.729Z,12.18
2022-07-27T01:40:23.595Z,12.90
2022-07-27T01:42:50.390Z,14.48
2022-07-27T01:45:17.372Z,13.23
2022-07-27T01:47:44.021Z,12.52
2022-07-27T01:50:11.485Z,13.43
2022-07-27T01:52:39.255Z,14.32
2022-07-27T01:55:10.112Z,13.32
2022-07-27T01:57:38.174Z,15.50
2022-07-27T02:00:08.454Z,14.07
2022-07-27T02:02:40.002Z,16.60
2022-07-27T02:05:08.224Z,15.73
2022-07-27T02:07:34.776Z,15.48
2022-07-27T02:10:01.414Z,14.10
2022-07-27T02:12:38.163Z,14.02
2022-07-27T02:15:14.897Z,16.30
2022-07-27T02:17:43.889Z,23.05
2022-07-27T02:20:14.290Z,20.63
2022-07-27T02:22:41.489Z,25.85
2022-07-27T02:25:08.886Z,29.70
2022-07-27T02:27:35.989Z,30.85
2022-07-27T02:30:04.161Z,28.98
2022-07-27T02:32:30.979Z,30.30
2022-07-27T02:34:57.935Z,29.25
2022-07-27T02:37:25.039Z,33.22
2022-07-27T02:39:52.966Z,35.03
2022-07-27T02:42:20.373Z,29.17
2022-07-27T02:44:46.969Z,19.02
2022-07-27T02:47:13.643Z,20.35
2022-07-27T02:49:40.244Z,17.92
2022-07-27T02:52:07.258Z,21.50
2022-07-27T02:54:34.916Z,24.85
2022-07-27T02:57:05.106Z,22.58
2022-07-27T02:59:31.768Z,20.85
2022-07-27T03:01:58.460Z,20.40
2022-07-27T03:04:25.667Z,21.27
2022-07-27T03:06:52.409Z,18.08
2022-07-27T03:09:19.004Z,19.05
2022-07-27T03:11:55.376Z,18.20
2022-07-27T03:14:21.912Z,19.05
2022-07-27T03:16:48.789Z,17.58
2022-07-27T03:19:15.415Z,18.65
2022-07-27T03:21:42.043Z,19.80
2022-07-27T03:24:08.608Z,18.30
2022-07-27T03:26:35.331Z,17.52
2022-07-27T03:29:02.093Z,16.33
2022-07-27T03:31:28.823Z,17.55
2022-07-27T03:33:55.517Z,14.57
2022-07-27T03:36:22.398Z,17.25
2022-07-27T03:38:49.055Z,16.60
2022-07-27T03:41:15.994Z,16.42
2022-07-27T03:43:42.618Z,15.63
2022-07-27T03:46:09.373Z,16.27
2022-07-27T03:48:36.080Z,18.60
2022-07-27T03:51:02.956Z,16.15
2022-07-27T03:53:29.621Z,19.63
2022-07-27T03:55:56.377Z,19.73
2022-07-27T03:58:23.755Z,19.58
2022-07-27T04:00:51.089Z,21.88
2022-07-27T04:03:18.139Z,22.27
2022-07-27T04:05:45.098Z,22.90
2022-07-27T04:08:11.616Z,22.25
2022-07-27T04:10:39.071Z,22.42
2022-07-27T04:13:06.188Z,22.70
2022-07-27T04:15:32.907Z,22.75
2022-07-27T04:17:59.988Z,20.95
2022-07-27T04:20:26.912Z,21.00
2022-07-27T04:22:53.755Z,20.80
2022-07-27T04:25:20.570Z,21.00
2022-07-27T04:27:47.235Z,22.80
2022-07-27T04:30:13.990Z,22.60
2022-07-27T04:32:40.544Z,20.67
2022-07-27T04:35:07.929Z,20.70
2022-07-27T04:37:35.108Z,20.83
2022-07-27T04:40:02.052Z,18.70
2022-07-27T04:42:29.756Z,19.33
2022-07-27T04:44:56.496Z,18.27
2022-07-27T04:47:23.036Z,19.50
2022-07-27T04:49:49.620Z,18.52
2022-07-27T04:52:17.179Z,18.63
2022-07-27T04:54:44.402Z,18.83
2022-07-27T04:57:10.958Z,18.15
2022-07-27T04:59:37.664Z,17.95
2022-07-27T05:02:04.311Z,16.58
2022-07-27T05:04:30.964Z,15.95
2022-07-27T05:06:57.787Z,17.63
2022-07-27T05:09:24.492Z,15.50
2022-07-27T05:11:51.872Z,15.45
2022-07-27T05:14:19.932Z,14.82
2022-07-27T05:16:48.733Z,14.55
2022-07-27T05:19:15.713Z,12.85
2022-07-27T05:21:42.581Z,13.55
2022-07-27T05:24:10.130Z,13.95
2022-07-27T05:26:37.298Z,12.60
2022-07-27T05:29:04.514Z,13.57
2022-07-27T05:31:31.366Z,12.38
2022-07-27T05:33:58.789Z,12.85
2022-07-27T05:36:25.919Z,12.95
2022-07-27T05:38:52.660Z,11.68
2022-07-27T05:41:26.726Z,13.48
2022-07-27T05:43:54.573Z,11.45
2022-07-27T05:46:21.691Z,11.70
2022-07-27T05:48:48.804Z,13.38
2022-07-27T05:51:15.444Z,13.02
2022-07-27T05:53:42.160Z,14.48
2022-07-27T05:58:30.048Z,14.77
2022-07-27T06:03:16.869Z,14.35
2022-07-27T06:05:43.592Z,13.90
2022-07-27T06:08:10.163Z,16.75
2022-07-27T06:10:38.040Z,15.68
2022-07-27T06:13:06.660Z,14.73
2022-07-27T06:15:37.171Z,15.40
2022-07-27T06:18:04.075Z,16.13
2022-07-27T06:20:30.988Z,14.77
2022-07-27T06:23:07.560Z,13.48
2022-07-27T06:25:35.885Z,13.93
2022-07-27T06:28:06.797Z,14.63
2022-07-27T06:30:34.182Z,15.82
2022-07-27T06:33:04.455Z,16.08
2022-07-27T06:35:31.625Z,17.10
2022-07-27T06:37:58.597Z,15.90
2022-07-27T06:40:29.455Z,17.25
2022-07-27T06:42:56.396Z,18.75
2022-07-27T06:45:22.965Z,19.85
2022-07-27T06:47:51.097Z,18.10
2022-07-27T06:50:20.241Z,19.42
2022-07-27T06:52:49.715Z,18.27
2022-07-27T06:55:16.379Z,18.05
2022-07-27T06:57:43.263Z,15.60
2022-07-27T07:00:10.843Z,15.38
2022-07-27T07:02:39.653Z,15.07
2022-07-27T07:05:06.625Z,16.13
2022-07-27T07:07:34.342Z,14.95
2022-07-27T07:10:00.894Z,16.08
2022-07-27T07:12:28.468Z,14.88
2022-07-27T07:14:55.172Z,12.10
2022-07-27T07:17:21.762Z,11.25
2022-07-27T07:19:48.294Z,11.70
2022-07-27T07:22:15.134Z,11.48
2022-07-27T07:24:42.057Z,13.15
2022-07-27T07:27:08.687Z,13.15
2022-07-27T07:29:36.048Z,12.25
2022-07-27T07:32:02.657Z,12.27
2022-07-27T07:34:29.559Z,13.10
2022-07-27T07:36:56.220Z,11.70
2022-07-27T07:39:24.674Z,12.55
2022-07-27T07:41:55.796Z,11.68
2022-07-27T07:44:22.358Z,11.15
2022-07-27T07:46:49.075Z,11.85
2022-07-27T07:49:16.732Z,12.60
2022-07-27T07:51:44.045Z,12.43
2022-07-27T07:54:10.828Z,14.18
2022-07-27T07:56:37.806Z,15.13
2022-07-27T07:59:05.018Z,15.05
2022-07-27T08:04:01.284Z,13.55
2022-07-27T08:06:28.488Z,14.68
2022-07-27T08:08:55.194Z,14.25
2022-07-27T08:11:21.790Z,14.25
2022-07-27T08:13:48.540Z,12.75
2022-07-27T08:16:15.216Z,13.70
2022-07-27T08:18:42.306Z,13.68
2022-07-27T08:21:09.116Z,11.82
2022-07-27T08:23:35.846Z,13.13
2022-07-27T08:26:07.565Z,12.55
2022-07-27T08:28:36.930Z,12.57
2022-07-27T08:33:33.607Z,13.13
2022-07-27T08:36:06.706Z,13.93
2022-07-27T08:38:33.708Z,14.10
2022-07-27T08:41:02.250Z,12.55
2022-07-27T08:43:30.810Z,11.68
2022-07-27T08:45:59.492Z,13.15
2022-07-27T08:48:28.013Z,11.50
2022-07-27T08:50:55.526Z,12.63
2022-07-27T08:53:23.297Z,13.27
2022-07-27T08:55:50.053Z,12.75
2022-07-27T08:58:17.294Z,13.18
2022-07-27T09:00:46.922Z,11.50
2022-07-27T09:03:19.603Z,12.20
2022-07-27T09:05:53.728Z,11.88
2022-07-27T09:08:28.792Z,12.63
2022-07-27T09:10:59.329Z,11.45
2022-07-27T09:13:32.185Z,11.52
2022-07-27T09:16:23.557Z,11.18
2022-07-27T09:18:59.929Z,10.52
2022-07-27T09:21:26.907Z,10.23
2022-07-27T09:24:36.811Z,8.98
2022-07-27T09:27:04.846Z,9.65
2022-07-27T09:29:36.098Z,10.32
2022-07-27T09:32:14.895Z,9.73
2022-07-27T09:34:41.637Z,9.25
2022-07-27T09:37:10.090Z,10.13
2022-07-27T09:39:36.881Z,8.93
2022-07-27T09:42:03.594Z,9.88
2022-07-27T09:44:42.165Z,9.95
2022-07-27T09:47:27.845Z,9.98
2022-07-27T09:50:18.893Z,9.40
2022-07-27T09:52:46.784Z,9.30
2022-07-27T09:55:13.397Z,8.38
2022-07-27T09:57:57.581Z,7.70
2022-07-27T10:00:25.697Z,7.82
2022-07-27T10:02:53.592Z,7.20
2022-07-27T10:05:24.377Z,8.23
2022-07-27T10:07:53.949Z,7.97
2022-07-27T10:10:21.814Z,8.27
2022-07-27T10:12:54.203Z,7.80
2022-07-27T10:15:21.832Z,8.32
2022-07-27T10:17:53.376Z,8.05
2022-07-27T10:20:20.034Z,7.95
2022-07-27T10:22:56.550Z,9.38
2022-07-27T10:25:27.524Z,8.73
2022-07-27T10:28:10.650Z,7.50
2022-07-27T10:30:38.019Z,8.82
2022-07-27T10:33:43.645Z,7.13
2022-07-27T10:36:19.600Z,7.68
2022-07-27T10:38:51.284Z,7.55
2022-07-27T10:41:26.625Z,8.00
2022-07-27T10:44:17.420Z,7.10
2022-07-27T10:47:02.608Z,6.77
2022-07-27T10:49:40.490Z,6.88
2022-07-27T10:52:41.472Z,6.57
2022-07-27T10:55:08.940Z,7.00
2022-07-27T10:57:36.577Z,6.50
2022-07-27T11:00:12.332Z,6.10
2022-07-27T11:02:42.991Z,5.03
2022-07-27T11:05:53.900Z,4.50
2022-07-27T11:08:36.077Z,4.15
2022-07-27T11:10:48.416Z,3.90
2022-07-27T11:13:19.347Z,4.78
2022-07-27T11:18:56.867Z,7.13
2022-07-27T11:21:26.760Z,7.28
2022-07-27T11:24:10.007Z,6.50
2022-07-27T11:26:40.081Z,6.40
2022-07-27T11:29:08.809Z,7.70
2022-07-27T11:31:54.637Z,6.95
2022-07-27T11:34:34.332Z,6.70
2022-07-27T11:37:03.137Z,6.00
2022-07-27T11:39:59.981Z,6.97
2022-07-27T11:42:23.560Z,5.85
2022-07-27T11:44:53.412Z,5.85
2022-07-27T11:47:23.905Z,4.75
2022-07-27T11:49:50.738Z,4.88
2022-07-27T11:52:18.555Z,4.30
2022-07-27T11:54:51.399Z,4.35
2022-07-27T11:57:18.910Z,5.28
2022-07-27T11:59:46.703Z,5.53
2022-07-27T12:02:17.705Z,4.40
2022-07-27T12:04:49.328Z,5.32
2022-07-27T12:09:54.528Z,5.03
2022-07-27T12:12:22.888Z,5.13
2022-07-27T12:14:51.142Z,4.88
2022-07-27T12:17:19.176Z,4.50
2022-07-27T12:20:04.108Z,5.43
2022-07-27T12:22:39.703Z,4.47
2022-07-27T12:25:18.441Z,4.95
2022-07-27T12:27:58.574Z,5.13
2022-07-27T12:30:36.354Z,5.32
2022-07-27T12:33:05.450Z,6.00
2022-07-27T12:35:50.227Z,6.78
2022-07-27T12:38:17.183Z,5.55
2022-07-27T12:40:49.665Z,6.18
2022-07-27T12:43:18.498Z,6.72
2022-07-27T12:45:46.071Z,6.63
2022-07-27T12:48:24.778Z,5.53
2022-07-27T12:51:01.546Z,5.22
2022-07-27T12:53:29.676Z,5.10
2022-07-27T12:55:58.526Z,5.82
2022-07-27T12:58:25.351Z,4.60
2022-07-27T13:00:52.067Z,6.38
2022-07-27T13:03:19.321Z,4.80
2022-07-27T13:05:46.632Z,4.38
2022-07-27T13:08:16.730Z,4.82
2022-07-27T13:10:44.563Z,5.05
2022-07-27T13:13:11.720Z,5.43
2022-07-27T13:15:38.527Z,5.38
2022-07-27T13:18:05.274Z,5.60
2022-07-27T13:20:34.209Z,6.85
2022-07-27T13:23:00.888Z,5.57
2022-07-27T13:25:27.871Z,5.78
2022-07-27T13:27:55.253Z,5.85
2022-07-27T13:30:22.069Z,6.90
2022-07-27T13:32:48.728Z,6.95
2022-07-27T13:35:17.027Z,6.28
2022-07-27T13:37:44.393Z,5.75
2022-07-27T13:40:11.557Z,6.30
2022-07-27T13:42:38.371Z,6.72
2022-07-27T13:45:10.444Z,6.68
2022-07-27T13:47:39.102Z,6.28
2022-07-27T13:50:06.565Z,7.05
2022-07-27T13:52:33.153Z,6.00
2022-07-27T13:54:59.790Z,6.03
2022-07-27T13:57:26.603Z,6.07
2022-07-27T13:59:53.518Z,5.28
2022-07-27T14:02:23.203Z,7.30
2022-07-27T14:04:53.327Z,6.60
2022-07-27T14:07:26.231Z,6.53
2022-07-27T14:10:13.335Z,6.22
2022-07-27T14:12:39.919Z,7.10
2022-07-27T14:15:07.261Z,6.47
2022-07-27T14:17:34.741Z,6.57
2022-07-27T14:20:01.527Z,5.82
2022-07-27T14:22:28.292Z,6.53
2022-07-27T14:24:54.941Z,6.65
2022-07-27T14:27:21.736Z,7.35
2022-07-27T14:29:48.549Z,7.18
2022-07-27T14:32:15.386Z,6.40
2022-07-27T14:34:44.210Z,5.65
2022-07-27T14:37:10.925Z,7.38
2022-07-27T14:39:39.343Z,5.78
2022-07-27T14:42:06.566Z,5.97
2022-07-27T14:44:34.964Z,6.10
2022-07-27T14:47:02.035Z,6.32
2022-07-27T14:49:29.275Z,6.43
2022-07-27T14:51:56.026Z,5.55
2022-07-27T14:54:22.874Z,6.95
2022-07-27T14:56:49.590Z,7.30
2022-07-27T14:59:16.756Z,5.40
2022-07-27T15:01:43.671Z,6.32
2022-07-27T15:04:10.325Z,6.78
2022-07-27T15:06:39.230Z,5.45
2022-07-27T15:09:07.897Z,5.88
2022-07-27T15:11:34.738Z,5.45
2022-07-27T15:14:01.527Z,6.07
2022-07-27T15:16:31.849Z,6.20
2022-07-27T15:19:00.285Z,6.13
2022-07-27T15:21:27.438Z,5.57
2022-07-27T15:23:54.056Z,5.15
2022-07-27T15:26:20.771Z,6.38
2022-07-27T15:28:47.395Z,5.90
2022-07-27T15:31:14.634Z,5.47
2022-07-27T15:33:41.608Z,5.25
2022-07-27T15:36:08.343Z,5.75
2022-07-27T15:38:35.192Z,5.50
2022-07-27T15:41:01.828Z,5.50
2022-07-27T15:43:28.529Z,5.75
2022-07-27T15:45:55.429Z,5.47
2022-07-27T15:48:23.047Z,5.97
2022-07-27T15:50:53.495Z,5.13
2022-07-27T15:53:22.149Z,5.60
2022-07-27T15:55:49.647Z,5.88
2022-07-27T15:58:19.440Z,5.70
2022-07-27T16:00:48.743Z,5.75
2022-07-27T16:03:16.430Z,5.63
2022-07-27T16:05:45.155Z,5.47
2022-07-27T16:08:11.792Z,5.57
2022-07-27T16:10:39.814Z,5.20
2022-07-27T16:13:07.976Z,5.70
2022-07-27T16:15:53.823Z,4.88
2022-07-27T16:18:20.596Z,5.55
2022-07-27T16:20:47.188Z,6.30
2022-07-27T16:23:18.778Z,5.72
2022-07-27T16:26:07.510Z,5.40
2022-07-27T16:28:39.184Z,4.63
2022-07-27T16:31:08.918Z,5.63
2022-07-27T16:33:36.248Z,4.97
2022-07-27T16:38:17.605Z,5.65
2022-07-27T16:40:44.370Z,4.75
2022-07-27T16:43:10.965Z,6.03
2022-07-27T16:45:37.607Z,5.22
2022-07-27T16:48:04.288Z,5.65
2022-07-27T16:50:31.195Z,5.65
2022-07-27T16:52:57.811Z,5.05
2022-07-27T16:55:27.439Z,5.60
2022-07-27T16:57:54.465Z,6.50
2022-07-27T17:00:21.392Z,5.53
2022-07-27T17:02:48.098Z,5.07
2022-07-27T17:05:14.655Z,5.57
2022-07-27T17:07:42.813Z,5.85
2022-07-27T17:10:09.914Z,5.65
2022-07-27T17:12:38.761Z,5.40
2022-07-27T17:15:07.170Z,5.93
2022-07-27T17:17:34.373Z,6.57
2022-07-27T17:20:01.005Z,7.60
2022-07-27T17:22:27.811Z,6.65
2022-07-27T17:24:54.450Z,5.20
2022-07-27T17:27:21.864Z,6.00
2022-07-27T17:29:48.552Z,6.97
2022-07-27T17:32:15.310Z,6.93
2022-07-27T17:34:41.912Z,5.20
2022-07-27T17:37:08.866Z,5.53
2022-07-27T17:39:36.062Z,5.90
2022-07-27T17:42:04.280Z,7.07
2022-07-27T17:44:30.969Z,6.75
2022-07-27T17:46:57.749Z,6.40
2022-07-27T17:49:24.499Z,7.20
2022-07-27T17:51:51.292Z,7.95
2022-07-27T17:54:17.893Z,7.53
2022-07-27T17:56:44.595Z,6.80
2022-07-27T17:59:35.844Z,6.00
2022-07-27T18:01:59.576Z,6.30
2022-07-27T18:04:29.844Z,4.93
2022-07-27T18:06:56.589Z,3.78
2022-07-27T18:09:23.331Z,4.00
2022-07-27T18:11:50.322Z,4.07
2022-07-27T18:14:16.906Z,4.15
2022-07-27T18:16:43.562Z,5.30
2022-07-27T18:19:10.945Z,4.43
2022-07-27T18:21:37.865Z,3.40
2022-07-27T18:24:04.812Z,3.08
2022-07-27T18:26:31.626Z,2.85
2022-07-27T18:28:58.151Z,2.70
2022-07-27T18:31:25.123Z,3.10
2022-07-27T18:33:54.342Z,2.33
2022-07-27T18:36:21.409Z,2.90
2022-07-27T18:38:49.818Z,2.20
2022-07-27T18:41:18.975Z,2.88
2022-07-27T18:43:51.462Z,2.53
2022-07-27T18:46:22.810Z,2.60
2022-07-27T18:48:50.050Z,2.35
2022-07-27T18:51:17.102Z,2.75
2022-07-27T18:53:44.975Z,2.33
2022-07-27T18:56:12.050Z,3.15
2022-07-27T18:58:40.482Z,3.42
2022-07-27T19:01:09.375Z,2.67
2022-07-27T19:03:37.265Z,2.63
2022-07-27T19:06:09.333Z,2.20
2022-07-27T19:08:39.287Z,2.60
2022-07-27T19:11:05.982Z,2.78
2022-07-27T19:13:32.598Z,2.33
2022-07-27T19:16:00.848Z,2.65
2022-07-27T19:18:27.528Z,3.53
2022-07-27T19:20:55.499Z,3.35
2022-07-27T19:23:23.253Z,2.17
2022-07-27T19:25:50.042Z,3.40
2022-07-27T19:28:20.419Z,2.63
2022-07-27T19:30:47.766Z,3.05
2022-07-27T19:33:14.664Z,2.42
2022-07-27T19:35:41.434Z,3.45
2022-07-27T19:38:08.871Z,2.58
2022-07-27T19:40:45.600Z,2.38
2022-07-27T19:43:13.876Z,2.22
2022-07-27T19:45:41.300Z,2.55
2022-07-27T19:48:08.848Z,2.85
2022-07-27T19:50:35.495Z,2.95
2022-07-27T19:53:02.373Z,3.17
2022-07-27T19:55:31.963Z,2.50
2022-07-27T19:57:58.882Z,2.40
2022-07-27T20:00:25.539Z,2.28
2022-07-27T20:02:52.327Z,2.40
2022-07-27T20:05:19.120Z,2.60
2022-07-27T20:07:45.889Z,2.67
2022-07-27T20:10:12.456Z,2.40
2022-07-27T20:12:39.254Z,2.40
2022-07-27T20:15:06.667Z,2.60
2022-07-27T20:17:36.958Z,2.70
2022-07-27T20:20:08.090Z,2.35
2022-07-27T20:22:34.968Z,2.60
2022-07-27T20:25:02.310Z,2.80
2022-07-27T20:27:28.997Z,2.10
2022-07-27T20:29:56.452Z,3.05
2022-07-27T20:32:23.093Z,2.72
2022-07-27T20:34:49.764Z,2.50
2022-07-27T20:37:16.980Z,3.00
2022-07-27T20:39:43.629Z,2.70
2022-07-27T20:42:10.934Z,2.95
2022-07-27T20:44:37.497Z,2.42
2022-07-27T20:47:04.152Z,2.65
2022-07-27T20:49:30.801Z,2.50
2022-07-27T20:51:57.441Z,3.25
2022-07-27T20:54:29.115Z,2.40
2022-07-27T20:56:56.887Z,2.45
2022-07-27T20:59:23.936Z,3.00
2022-07-27T21:01:50.807Z,2.85
2022-07-27T21:04:19.077Z,2.65
2022-07-27T21:06:46.444Z,2.75
2022-07-27T21:09:15.267Z,2.97
2022-07-27T21:11:42.857Z,2.72
2022-07-27T21:14:09.678Z,2.83
2022-07-27T21:16:37.001Z,2.92
2022-07-27T21:19:04.106Z,2.65
2022-07-27T21:21:31.021Z,2.70
2022-07-27T21:24:17.828Z,2.83
2022-07-27T21:26:49.620Z,2.28
2022-07-27T21:29:17.030Z,2.40
2022-07-27T21:31:46.576Z,3.00
2022-07-27T21:34:16.128Z,2.55
2022-07-27T21:36:44.028Z,2.90
2022-07-27T21:39:10.977Z,2.22
2022-07-27T21:41:39.216Z,2.75
2022-07-27T21:44:06.309Z,2.97
2022-07-27T21:46:32.932Z,3.58
2022-07-27T21:48:59.666Z,2.90
2022-07-27T21:51:26.373Z,2.30
2022-07-27T21:53:53.191Z,3.05
2022-07-27T21:56:19.750Z,2.40
2022-07-27T21:58:47.904Z,2.95
2022-07-27T22:01:17.525Z,2.92
2022-07-27T22:03:45.366Z,2.88
2022-07-27T22:06:12.126Z,3.15
2022-07-27T22:08:38.989Z,3.08
2022-07-27T22:11:06.070Z,3.10
2022-07-27T22:13:33.699Z,3.05
2022-07-27T22:16:00.914Z,2.83
2022-07-27T22:18:28.797Z,2.97
2022-07-27T22:20:56.031Z,2.95
2022-07-27T22:23:23.378Z,2.92
2022-07-27T22:25:50.239Z,2.33
2022-07-27T22:28:17.045Z,2.30
2022-07-27T22:30:43.610Z,1.95
2022-07-27T22:33:30.266Z,2.78
2022-07-27T22:35:57.742Z,2.55
2022-07-27T22:38:24.416Z,2.42
2022-07-27T22:40:55.342Z,2.38
2022-07-27T22:43:22.486Z,2.42
2022-07-27T22:45:49.940Z,3.13
2022-07-27T22:48:16.629Z,2.20
2022-07-27T22:50:46.954Z,2.35
2022-07-27T22:53:17.494Z,1.77
2022-07-27T22:55:44.295Z,2.00
2022-07-27T22:58:10.832Z,1.98
2022-07-27T23:00:37.952Z,2.17
2022-07-27T23:03:04.475Z,1.55
2022-07-27T23:05:31.584Z,2.22
2022-07-27T23:07:58.373Z,1.77
2022-07-27T23:10:43.149Z,1.60
2022-07-27T23:13:09.883Z,2.50
2022-07-27T23:15:37.245Z,1.90
2022-07-27T23:18:03.928Z,1.70
2022-07-27T23:20:30.577Z,2.03
2022-07-27T23:22:57.264Z,1.65
2022-07-27T23:27:41.540Z,1.70
2022-07-27T23:30:08.752Z,1.38
2022-07-27T23:32:36.088Z,1.80
2022-07-27T23:35:03.172Z,1.50
2022-07-27T23:37:29.733Z,1.77
2022-07-27T23:39:56.337Z,1.98
2022-07-27T23:42:23.037Z,2.13
2022-07-27T23:44:49.643Z,1.60
2022-07-27T23:47:17.142Z,1.63
2022-07-27T23:49:43.768Z,2.42
2022-07-27T23:52:10.349Z,2.35
2022-07-27T23:54:36.920Z,2.10
2022-07-27T23:57:03.597Z,2.10
2022-07-27T23:59:30.221Z,2.00
